Time;durP1;ratioP1;P1;durP2;ratioP2;P2;SDS_P1;SDS_P2;PMS_P1;PMS_P2;Temp;Humidity;BMP_temperature;BMP_pressure;BME280_temperature;BME280_humidity;BME280_pressure;Samples;Min_cycle;Max_cycle;Signal;HPM_P1;HPM_P2
2021/10/16 00:00:09;;;;;;;0.20;0.10;;;9.70;99.90;;;;;;5036551;28;20185;-66
2021/10/16 00:02:35;;;;;;;0.20;0.20;;;9.70;99.90;;;;;;5036838;28;20220;-66
2021/10/16 00:05:01;;;;;;;0.20;0.20;;;9.70;99.90;;;;;;5036623;28;20183;-62
2021/10/16 00:07:26;;;;;;;0.20;0.10;;;9.80;99.90;;;;;;5036530;28;20180;-63
2021/10/16 00:09:52;;;;;;;0.30;0.20;;;9.80;99.90;;;;;;5036220;28;20243;-63
2021/10/16 00:12:17;;;;;;;0.30;0.20;;;9.90;99.90;;;;;;5036520;28;20660;-66
2021/10/16 00:14:43;;;;;;;0.20;0.20;;;9.90;99.90;;;;;;5019200;28;20295;-63
2021/10/16 00:17:08;;;;;;;0.27;0.20;;;9.90;99.90;;;;;;5036555;28;20603;-63
2021/10/16 00:19:34;;;;;;;0.20;0.20;;;9.80;99.90;;;;;;5036065;28;20192;-63
2021/10/16 00:22:00;;;;;;;0.20;0.10;;;10.00;99.90;;;;;;5036719;28;20212;-63
2021/10/16 00:24:25;;;;;;;0.20;0.20;;;10.00;99.90;;;;;;5036219;28;20427;-66
2021/10/16 00:26:51;;;;;;;0.20;0.20;;;10.00;99.90;;;;;;5036298;28;20185;-62
2021/10/16 00:29:16;;;;;;;0.27;0.20;;;10.10;99.90;;;;;;5036289;28;20172;-62
2021/10/16 00:31:42;;;;;;;0.20;0.20;;;10.20;99.90;;;;;;5036400;28;20192;-62
2021/10/16 00:34:08;;;;;;;0.20;0.10;;;10.30;99.90;;;;;;5036211;28;20517;-62
2021/10/16 00:36:33;;;;;;;0.30;0.20;;;10.30;99.90;;;;;;5036076;28;20185;-62
2021/10/16 00:38:59;;;;;;;0.20;0.10;;;10.30;99.90;;;;;;5035379;28;20191;-62
2021/10/16 00:41:24;;;;;;;0.30;0.20;;;10.30;99.90;;;;;;5035808;28;20658;-62
2021/10/16 00:44:09;;;;;;;0.30;0.10;;;10.40;99.90;;;;;;5018405;28;20181;-62
2021/10/16 00:46:35;;;;;;;0.30;0.20;;;10.30;99.90;;;;;;5035835;28;20183;-62
2021/10/16 00:49:00;;;;;;;0.30;0.17;;;10.40;99.90;;;;;;5035573;28;20194;-62
2021/10/16 00:51:26;;;;;;;0.20;0.20;;;10.40;99.90;;;;;;5035617;28;20646;-62
2021/10/16 00:53:52;;;;;;;0.20;0.20;;;10.50;99.90;;;;;;5035793;28;20419;-62
2021/10/16 00:56:17;;;;;;;0.30;0.20;;;10.50;99.90;;;;;;5035946;28;20184;-62
2021/10/16 00:58:43;;;;;;;0.20;0.10;;;10.30;99.90;;;;;;5035816;28;20191;-62
2021/10/16 01:01:08;;;;;;;0.30;0.20;;;10.20;99.90;;;;;;5035523;28;20208;-62
2021/10/16 01:03:34;;;;;;;0.30;0.20;;;10.10;99.90;;;;;;5035494;28;20177;-62
2021/10/16 01:05:59;;;;;;;0.30;0.20;;;10.10;99.90;;;;;;5035351;28;20185;-62
2021/10/16 01:08:25;;;;;;;0.20;0.20;;;10.10;99.90;;;;;;5035153;28;20181;-61
2021/10/16 01:10:51;;;;;;;0.20;0.20;;;10.10;99.90;;;;;;5035827;28;20181;-62
2021/10/16 01:13:17;;;;;;;0.20;0.10;;;10.10;99.90;;;;;;5035362;28;20534;-62
2021/10/16 01:15:44;;;;;;;0.30;0.20;;;10.00;99.90;;;;;;5035192;28;20191;-61
2021/10/16 01:18:10;;;;;;;0.20;0.20;;;10.00;99.90;;;;;;5035031;28;20191;-62
2021/10/16 01:20:44;;;;;;;0.30;0.20;;;10.00;99.90;;;;;;5035070;28;20216;-62
2021/10/16 01:23:10;;;;;;;0.20;0.20;;;10.00;99.90;;;;;;5035316;28;20430;-62
2021/10/16 01:25:37;;;;;;;0.30;0.20;;;9.90;99.90;;;;;;5035041;28;20175;-62
2021/10/16 01:28:03;;;;;;;0.20;0.10;;;9.90;99.90;;;;;;5034795;28;20189;-62
2021/10/16 01:30:29;;;;;;;0.30;0.20;;;9.80;99.90;;;;;;5035019;28;20183;-61
2021/10/16 01:32:55;;;;;;;0.20;0.20;;;9.80;99.90;;;;;;5035025;28;20255;-61
2021/10/16 01:35:21;;;;;;;0.30;0.20;;;9.90;99.90;;;;;;5017653;28;20643;-61
2021/10/16 01:37:50;;;;;;;0.30;0.20;;;10.00;99.90;;;;;;5034815;28;20181;-62
2021/10/16 01:40:16;;;;;;;0.30;0.20;;;10.10;99.90;;;;;;5034713;28;20433;-62
2021/10/16 01:42:42;;;;;;;0.30;0.20;;;10.10;99.90;;;;;;5034853;28;20279;-62
2021/10/16 01:45:11;;;;;;;0.30;0.20;;;10.10;99.90;;;;;;5034702;28;20220;-62
2021/10/16 01:47:49;;;;;;;0.20;0.10;;;10.20;99.90;;;;;;5034948;28;20184;-61
2021/10/16 01:50:16;;;;;;;0.20;0.20;;;10.10;99.90;;;;;;5017037;28;20176;-61
2021/10/16 01:52:42;;;;;;;0.30;0.20;;;10.00;99.90;;;;;;5033788;28;20638;-61
2021/10/16 01:55:08;;;;;;;0.20;0.20;;;10.10;99.90;;;;;;5034615;28;20189;-65
2021/10/16 01:57:33;;;;;;;0.20;0.20;;;10.00;99.90;;;;;;5034539;28;20428;-65
2021/10/16 01:59:59;;;;;;;0.20;0.17;;;10.00;99.90;;;;;;5034252;28;20493;-60
2021/10/16 02:02:24;;;;;;;0.20;0.20;;;9.90;99.90;;;;;;5034251;28;20209;-61
2021/10/16 02:04:50;;;;;;;0.30;0.20;;;9.90;99.90;;;;;;5034332;28;20185;-61
2021/10/16 02:07:15;;;;;;;0.20;0.20;;;9.90;99.90;;;;;;5034350;28;20188;-60
2021/10/16 02:09:41;;;;;;;0.30;0.20;;;9.80;99.90;;;;;;5034187;28;20520;-61
2021/10/16 02:12:06;;;;;;;0.30;0.20;;;9.90;99.90;;;;;;5034135;28;20205;-65
2021/10/16 02:14:32;;;;;;;0.30;0.30;;;9.90;99.90;;;;;;5034274;28;20191;-65
2021/10/16 02:16:57;;;;;;;0.30;0.20;;;9.90;99.90;;;;;;5034104;28;20195;-65
2021/10/16 02:19:23;;;;;;;0.20;0.20;;;9.90;99.90;;;;;;5033919;28;20193;-65
2021/10/16 02:21:49;;;;;;;0.30;0.20;;;9.90;99.90;;;;;;5033929;28;20208;-65
2021/10/16 02:24:14;;;;;;;0.30;0.20;;;9.90;99.90;;;;;;5034063;28;20183;-65
2021/10/16 02:26:41;;;;;;;3.27;3.17;;;10.00;99.90;;;;;;5034024;28;20576;-65
2021/10/16 02:29:06;;;;;;;0.30;0.20;;;10.00;99.90;;;;;;5033714;28;20452;-65
2021/10/16 02:31:32;;;;;;;0.20;0.20;;;10.00;99.90;;;;;;5033829;28;20338;-65
2021/10/16 02:33:57;;;;;;;0.30;0.20;;;10.00;99.90;;;;;;5016450;28;20709;-66
2021/10/16 02:36:23;;;;;;;0.20;0.20;;;10.10;99.90;;;;;;5034061;28;20271;-65
2021/10/16 02:38:48;;;;;;;0.20;0.20;;;10.20;99.90;;;;;;5033589;28;20211;-65
2021/10/16 02:41:14;;;;;;;0.20;0.20;;;10.20;99.90;;;;;;5033662;28;20266;-62
2021/10/16 02:43:40;;;;;;;0.27;0.20;;;10.20;99.90;;;;;;5033769;28;20185;-61
2021/10/16 02:46:05;;;;;;;0.30;0.20;;;10.30;99.90;;;;;;5033652;28;20556;-61
2021/10/16 02:48:31;;;;;;;0.30;0.30;;;10.40;99.90;;;;;;5033446;28;20437;-65
2021/10/16 02:50:57;;;;;;;0.30;0.20;;;10.40;99.90;;;;;;5033959;28;20506;-65
2021/10/16 02:53:22;;;;;;;0.20;0.20;;;10.40;99.90;;;;;;5016102;28;20219;-63
2021/10/16 02:55:48;;;;;;;1.63;0.60;;;10.50;99.90;;;;;;5016138;28;20442;-65
2021/10/16 02:58:13;;;;;;;0.20;0.10;;;10.40;99.90;;;;;;5033461;28;20260;-65
2021/10/16 03:00:39;;;;;;;0.50;0.50;;;10.40;99.90;;;;;;5033464;28;20308;-65
2021/10/16 03:03:04;;;;;;;0.27;0.20;;;10.30;99.90;;;;;;5033485;28;20193;-62
2021/10/16 03:05:30;;;;;;;0.20;0.10;;;10.40;99.90;;;;;;5016142;28;20598;-61
2021/10/16 03:07:55;;;;;;;0.30;0.20;;;10.40;99.90;;;;;;5033175;28;20186;-65
2021/10/16 03:10:21;;;;;;;0.30;0.20;;;10.50;99.90;;;;;;5033500;28;20618;-65
2021/10/16 03:12:47;;;;;;;0.30;0.10;;;10.50;99.90;;;;;;5015799;28;20565;-65
2021/10/16 03:15:12;;;;;;;0.20;0.10;;;10.40;99.90;;;;;;5032450;28;20652;-65
2021/10/16 03:17:38;;;;;;;0.20;0.20;;;10.40;99.90;;;;;;5016020;28;20215;-65
2021/10/16 03:20:05;;;;;;;0.30;0.20;;;10.50;99.90;;;;;;5015745;28;20177;-65
2021/10/16 03:22:30;;;;;;;0.40;0.40;;;10.40;99.90;;;;;;5033255;28;20213;-66
2021/10/16 03:24:56;;;;;;;0.20;0.17;;;10.20;99.90;;;;;;5033526;28;20250;-61
2021/10/16 03:27:22;;;;;;;0.20;0.10;;;10.20;99.90;;;;;;5033385;28;20174;-61
2021/10/16 03:29:47;;;;;;;0.30;0.20;;;10.30;99.90;;;;;;5033043;28;20181;-61
2021/10/16 03:32:13;;;;;;;0.20;0.20;;;10.20;99.90;;;;;;5033203;28;20184;-61
2021/10/16 03:34:38;;;;;;;0.23;0.20;;;10.20;99.90;;;;;;5033316;28;20200;-65
2021/10/16 03:37:04;;;;;;;0.20;0.20;;;10.10;99.90;;;;;;5032297;28;20211;-66
2021/10/16 03:39:29;;;;;;;0.20;0.20;;;10.10;99.90;;;;;;5033100;28;20252;-65
2021/10/16 03:41:55;;;;;;;0.20;0.20;;;10.10;99.90;;;;;;5033222;28;20660;-66
2021/10/16 03:44:20;;;;;;;0.20;0.10;;;10.00;99.90;;;;;;5033169;28;20536;-65
2021/10/16 03:46:46;;;;;;;0.20;0.20;;;10.00;99.90;;;;;;5033172;28;20271;-65
2021/10/16 03:49:11;;;;;;;0.30;0.20;;;9.80;99.90;;;;;;5032910;28;20194;-65
2021/10/16 03:51:37;;;;;;;33.93;8.37;;;9.90;99.90;;;;;;5033061;28;20180;-66
2021/10/16 03:54:03;;;;;;;0.20;0.20;;;9.80;99.90;;;;;;5015812;28;20184;-65
2021/10/16 03:56:29;;;;;;;0.30;0.20;;;9.80;99.90;;;;;;5015850;28;20184;-66
2021/10/16 03:58:55;;;;;;;0.20;0.20;;;9.90;99.90;;;;;;5032827;28;20203;-65
2021/10/16 04:01:20;;;;;;;0.20;0.20;;;10.00;99.90;;;;;;5032431;28;20283;-65
2021/10/16 04:03:46;;;;;;;0.27;0.23;;;9.90;99.90;;;;;;5032674;28;20549;-65
2021/10/16 04:06:12;;;;;;;0.20;0.20;;;10.00;99.90;;;;;;5033166;28;20204;-65
2021/10/16 04:08:37;;;;;;;0.30;0.20;;;10.00;99.90;;;;;;5032288;28;20573;-65
2021/10/16 04:11:03;;;;;;;0.20;0.10;;;9.90;99.90;;;;;;5032887;28;20257;-62
2021/10/16 04:13:31;;;;;;;0.20;0.10;;;9.90;99.90;;;;;;5033243;28;20585;-63
2021/10/16 04:15:57;;;;;;;0.20;0.20;;;10.00;99.90;;;;;;5036268;28;20546;-63
2021/10/16 04:18:23;;;;;;;0.20;0.20;;;9.90;99.90;;;;;;5019238;28;20239;-64
2021/10/16 04:20:49;;;;;;;0.30;0.20;;;9.80;99.90;;;;;;5022688;28;20794;-63
2021/10/16 04:23:14;;;;;;;0.20;0.20;;;9.90;99.90;;;;;;5048515;28;20430;-63
2021/10/16 04:25:57;;;;;;;1.90;1.80;;;10.00;99.90;;;;;;5035611;28;20215;-64
2021/10/16 04:28:28;;;;;;;0.20;0.20;;;9.80;99.90;;;;;;5056029;28;20251;-63
2021/10/16 04:30:54;;;;;;;0.30;0.20;;;9.70;99.90;;;;;;5026920;28;20191;-62
2021/10/16 04:33:20;;;;;;;0.30;0.30;;;9.70;99.90;;;;;;5046869;28;20184;-62
2021/10/16 04:35:45;;;;;;;0.20;0.20;;;9.60;99.90;;;;;;5046299;28;20565;-62
2021/10/16 04:38:11;;;;;;;0.20;0.10;;;9.40;99.90;;;;;;5045434;28;20283;-62
2021/10/16 04:40:37;;;;;;;0.20;0.20;;;9.40;99.90;;;;;;5044669;28;20208;-62
2021/10/16 04:43:05;;;;;;;0.30;0.30;;;9.40;99.90;;;;;;5046439;28;20258;-62
2021/10/16 04:45:31;;;;;;;0.20;0.20;;;9.30;99.90;;;;;;5054697;28;20517;-62
2021/10/16 04:47:59;;;;;;;0.20;0.10;;;9.30;99.90;;;;;;5056301;28;20183;-64
2021/10/16 04:50:24;;;;;;;0.20;0.10;;;9.40;99.90;;;;;;5055674;28;20260;-65
2021/10/16 04:52:50;;;;;;;0.20;0.20;;;9.50;99.90;;;;;;5055709;28;20263;-65
2021/10/16 04:55:15;;;;;;;0.20;0.20;;;9.70;99.90;;;;;;5055580;28;20211;-65
2021/10/16 04:57:41;;;;;;;0.20;0.10;;;9.60;99.90;;;;;;5055580;28;20260;-65
2021/10/16 05:00:07;;;;;;;0.20;0.20;;;9.60;99.90;;;;;;5055162;28;20260;-66
2021/10/16 05:02:33;;;;;;;0.20;0.20;;;9.40;99.90;;;;;;5037843;28;20294;-63
2021/10/16 05:04:58;;;;;;;0.50;0.50;;;9.40;99.90;;;;;;5055442;28;20195;-62
2021/10/16 05:07:24;;;;;;;0.20;0.20;;;9.30;99.90;;;;;;5055424;28;20430;-62
2021/10/16 05:09:50;;;;;;;0.60;0.53;;;9.40;99.90;;;;;;5055129;28;20180;-63
2021/10/16 05:12:18;;;;;;;0.20;0.20;;;9.40;99.90;;;;;;5055158;28;20653;-63
2021/10/16 05:14:44;;;;;;;0.20;0.10;;;9.50;99.90;;;;;;5055226;28;20608;-62
2021/10/16 05:17:10;;;;;;;0.20;0.10;;;9.40;99.90;;;;;;5055134;28;20192;-62
2021/10/16 05:19:36;;;;;;;0.20;0.20;;;9.40;99.90;;;;;;5055107;28;20194;-62
2021/10/16 05:22:02;;;;;;;0.20;0.20;;;9.50;99.90;;;;;;5037466;28;20218;-62
2021/10/16 05:24:28;;;;;;;0.38;0.30;;;9.30;99.90;;;;;;5037409;28;20180;-62
2021/10/16 05:26:53;;;;;;;0.20;0.10;;;9.40;99.90;;;;;;5054793;28;20186;-62
2021/10/16 05:29:21;;;;;;;0.30;0.20;;;9.40;99.90;;;;;;5037114;28;20621;-62
2021/10/16 05:31:47;;;;;;;0.20;0.20;;;9.30;99.90;;;;;;5054956;28;20172;-62
2021/10/16 05:34:12;;;;;;;0.20;0.10;;;9.10;99.90;;;;;;5054940;28;20198;-62
2021/10/16 05:36:38;;;;;;;0.20;0.10;;;9.10;99.90;;;;;;5054799;28;20621;-62
2021/10/16 05:39:03;;;;;;;0.50;0.50;;;9.30;99.90;;;;;;5054706;28;20190;-62
2021/10/16 05:41:29;;;;;;;0.20;0.20;;;9.30;99.90;;;;;;5054772;28;20213;-62
2021/10/16 05:43:54;;;;;;;0.20;0.20;;;9.30;99.90;;;;;;5054565;28;20187;-62
2021/10/16 05:46:20;;;;;;;0.20;0.20;;;9.30;99.90;;;;;;5054549;28;20180;-62
2021/10/16 05:48:45;;;;;;;0.20;0.20;;;9.40;99.90;;;;;;5054370;28;20238;-62
2021/10/16 05:51:11;;;;;;;0.30;0.20;;;9.40;99.90;;;;;;5037411;28;20249;-63
2021/10/16 05:53:36;;;;;;;0.20;0.20;;;9.50;99.90;;;;;;5055131;28;20551;-65
2021/10/16 05:56:02;;;;;;;1.20;1.20;;;9.50;99.90;;;;;;5054473;28;20235;-66
2021/10/16 05:58:27;;;;;;;0.20;0.20;;;9.40;99.90;;;;;;5054197;28;20246;-65
2021/10/16 06:00:53;;;;;;;0.20;0.10;;;9.40;99.90;;;;;;5053785;28;20648;-65
2021/10/16 06:03:18;;;;;;;0.20;0.20;;;9.40;99.90;;;;;;5054323;28;20533;-65
2021/10/16 06:05:44;;;;;;;0.30;0.20;;;9.40;99.90;;;;;;5054287;28;20184;-61
2021/10/16 06:08:10;;;;;;;0.20;0.10;;;9.40;99.90;;;;;;5054222;28;21033;-65
2021/10/16 06:10:35;;;;;;;0.20;0.20;;;9.30;99.90;;;;;;5054266;28;20176;-65
2021/10/16 06:13:01;;;;;;;0.20;0.10;;;9.30;99.90;;;;;;5054058;28;20599;-65
2021/10/16 06:15:26;;;;;;;0.20;0.20;;;9.10;99.90;;;;;;5053024;28;20626;-65
2021/10/16 06:17:52;;;;;;;0.20;0.20;;;9.20;99.90;;;;;;5031091;28;20181;-65
2021/10/16 06:20:18;;;;;;;0.40;0.20;;;9.20;99.90;;;;;;5033666;28;20183;-65
2021/10/16 06:22:43;;;;;;;0.20;0.20;;;9.10;99.90;;;;;;5033682;28;20209;-61
2021/10/16 06:25:09;;;;;;;0.20;0.17;;;9.10;99.90;;;;;;5033813;28;20902;-65
2021/10/16 06:27:35;;;;;;;0.20;0.10;;;9.20;99.90;;;;;;5033415;28;20173;-65
2021/10/16 06:30:01;;;;;;;0.20;0.20;;;9.10;99.90;;;;;;5033246;28;20184;-65
2021/10/16 06:32:26;;;;;;;0.60;0.60;;;9.20;99.90;;;;;;5015933;28;20203;-65
2021/10/16 06:34:52;;;;;;;0.20;0.20;;;9.20;99.90;;;;;;5016344;28;20291;-65
2021/10/16 06:37:18;;;;;;;0.20;0.10;;;9.20;99.90;;;;;;5015926;28;20200;-65
2021/10/16 06:39:43;;;;;;;0.20;0.20;;;9.30;99.90;;;;;;5033413;28;20235;-65
2021/10/16 06:42:09;;;;;;;0.20;0.20;;;9.40;99.90;;;;;;5033606;28;20528;-65
2021/10/16 06:44:35;;;;;;;0.20;0.10;;;9.50;99.90;;;;;;5033206;28;20191;-66
2021/10/16 06:47:00;;;;;;;0.30;0.20;;;9.70;99.90;;;;;;5033441;28;20493;-65
2021/10/16 06:49:26;;;;;;;0.20;0.20;;;9.80;99.90;;;;;;5033361;28;20191;-65
2021/10/16 06:51:51;;;;;;;0.20;0.20;;;9.90;99.90;;;;;;5016321;28;20192;-65
2021/10/16 06:54:17;;;;;;;0.20;0.20;;;10.10;99.90;;;;;;5033603;28;20498;-65
2021/10/16 06:56:44;;;;;;;0.20;0.20;;;10.20;99.90;;;;;;5033607;28;20180;-65
2021/10/16 06:59:09;;;;;;;0.20;0.10;;;10.40;99.90;;;;;;5033282;28;20902;-65
2021/10/16 07:01:35;;;;;;;0.30;0.20;;;10.50;99.90;;;;;;5033553;28;20219;-61
2021/10/16 07:04:00;;;;;;;0.20;0.20;;;10.30;99.90;;;;;;5033393;28;20192;-65
2021/10/16 07:06:26;;;;;;;0.20;0.20;;;10.40;99.90;;;;;;5015912;28;20183;-65
2021/10/16 07:08:51;;;;;;;0.30;0.20;;;10.50;99.90;;;;;;5032992;28;20577;-65
2021/10/16 07:11:17;;;;;;;0.20;0.20;;;10.50;99.90;;;;;;5033285;28;20185;-65
2021/10/16 07:13:43;;;;;;;0.30;0.20;;;10.60;99.90;;;;;;5033090;28;20196;-61
2021/10/16 07:16:10;;;;;;;2.40;0.70;;;10.50;99.90;;;;;;5015912;28;20181;-61
2021/10/16 07:18:37;;;;;;;0.30;0.17;;;10.50;99.90;;;;;;5033007;28;20672;-61
2021/10/16 07:21:02;;;;;;;0.30;0.20;;;10.50;99.90;;;;;;5033278;28;20647;-61
2021/10/16 07:23:28;;;;;;;0.30;0.20;;;10.60;99.90;;;;;;5033190;28;20242;-61
2021/10/16 07:25:55;;;;;;;0.20;0.10;;;10.80;99.90;;;;;;5033208;28;20230;-61
2021/10/16 07:28:21;;;;;;;0.30;0.20;;;10.70;99.90;;;;;;5032823;28;20182;-61
2021/10/16 07:30:46;;;;;;;0.20;0.20;;;10.80;99.90;;;;;;5033093;28;20192;-61
2021/10/16 07:33:13;;;;;;;0.30;0.20;;;11.00;99.90;;;;;;5032998;28;20568;-61
2021/10/16 07:35:40;;;;;;;0.28;0.20;;;11.10;66.60;;;;;;5033114;28;20177;-61
2021/10/16 07:38:05;;;;;;;1.95;0.50;;;10.90;28.20;;;;;;5032693;28;20248;-61
2021/10/16 07:40:31;;;;;;;0.43;0.33;;;10.90;67.60;;;;;;5033036;28;20652;-61
2021/10/16 07:42:57;;;;;;;0.30;0.20;;;10.70;89.30;;;;;;5032952;28;20181;-61
2021/10/16 07:45:23;;;;;;;0.30;0.20;;;10.80;99.90;;;;;;5033211;28;20185;-62
2021/10/16 07:47:49;;;;;;;0.30;0.30;;;11.10;99.90;;;;;;5032923;28;20227;-61
2021/10/16 07:50:15;;;;;;;0.50;0.37;;;11.10;27.50;;;;;;5034944;28;20185;-61
2021/10/16 07:52:40;;;;;;;0.30;0.20;;;11.00;29.90;;;;;;5019304;28;20735;-61
2021/10/16 07:55:06;;;;;;;0.30;0.20;;;11.10;23.70;;;;;;5036712;28;20450;-61
2021/10/16 07:57:32;;;;;;;0.30;0.20;;;11.40;12.20;;;;;;5036660;28;20509;-61
2021/10/16 07:59:58;;;;;;;0.30;0.20;;;11.50;1.00;;;;;;5036061;28;20668;-61
2021/10/16 08:02:23;;;;;;;0.30;0.10;;;11.60;1.00;;;;;;5036561;28;20534;-62
2021/10/16 08:04:49;;;;;;;0.30;0.20;;;12.00;1.00;;;;;;5036618;28;20681;-62
2021/10/16 08:07:14;;;;;;;0.30;0.20;;;12.20;1.00;;;;;;5036646;28;20173;-62
2021/10/16 08:09:40;;;;;;;0.30;0.20;;;12.20;1.00;;;;;;5036402;28;20268;-62
2021/10/16 08:12:06;;;;;;;0.30;0.20;;;12.40;1.00;;;;;;5019059;28;20201;-63
2021/10/16 08:14:31;;;;;;;0.30;0.20;;;12.50;1.00;;;;;;5035814;28;20181;-63
2021/10/16 08:16:57;;;;;;;0.30;0.20;;;12.80;1.00;;;;;;5036408;28;20196;-63
2021/10/16 08:19:22;;;;;;;0.30;0.20;;;13.00;99.90;;;;;;5036098;28;20212;-63
2021/10/16 08:21:48;;;;;;;0.30;0.10;;;13.20;99.90;;;;;;5036208;28;20213;-63
2021/10/16 08:24:14;;;;;;;0.30;0.20;;;13.30;99.90;;;;;;5036446;28;20186;-63
2021/10/16 08:26:40;;;;;;;0.30;0.20;;;13.50;99.90;;;;;;5036229;28;20521;-63
2021/10/16 08:29:05;;;;;;;0.30;0.20;;;13.30;1.00;;;;;;5036023;28;20432;-66
2021/10/16 08:31:31;;;;;;;0.30;0.20;;;12.90;40.50;;;;;;5036339;28;20251;-66
2021/10/16 08:33:57;;;;;;;0.97;0.60;;;12.70;99.90;;;;;;5036779;28;20188;-66
2021/10/16 08:36:22;;;;;;;0.80;0.80;;;12.70;99.90;;;;;;5036392;28;20275;-66
2021/10/16 08:38:48;;;;;;;0.30;0.20;;;13.00;99.90;;;;;;5035731;28;20567;-66
2021/10/16 08:41:26;;;;;;;0.30;0.17;;;12.90;11.60;;;;;;5018512;28;20209;-66
2021/10/16 08:44:11;;;;;;;0.30;0.20;;;12.70;99.90;;;;;;5036104;28;20278;-66
2021/10/16 08:46:54;;;;;;;0.30;0.20;;;12.60;98.40;;;;;;5035641;28;20261;-66
2021/10/16 08:49:40;;;;;;;0.50;0.28;;;12.80;99.90;;;;;;5035551;28;20188;-66
2021/10/16 08:52:17;;;;;;;0.30;0.20;;;12.90;1.00;;;;;;5035674;28;20184;-66
2021/10/16 08:55:03;;;;;;;0.30;0.10;;;12.90;1.00;;;;;;5035718;28;20622;-66
2021/10/16 08:57:43;;;;;;;0.30;0.20;;;13.20;1.00;;;;;;5035825;28;20243;-66
2021/10/16 09:00:38;;;;;;;0.30;0.10;;;13.50;1.00;;;;;;5034616;28;20215;-63
2021/10/16 09:03:17;;;;;;;0.30;0.20;;;13.50;22.00;;;;;;5035450;28;20208;-62
2021/10/16 09:05:56;;;;;;;0.30;0.20;;;13.00;99.90;;;;;;5035382;28;20181;-62
2021/10/16 09:08:40;;;;;;;0.65;0.65;;;13.00;99.90;;;;;;5017969;28;20185;-65
2021/10/16 09:11:22;;;;;;;0.30;0.20;;;12.90;99.90;;;;;;5035652;28;20639;-65
2021/10/16 09:13:56;;;;;;;0.30;0.20;;;13.00;99.90;;;;;;5017720;28;20734;-62
2021/10/16 09:16:25;;;;;;;0.40;0.20;;;13.10;1.00;;;;;;5035274;28;20213;-62
2021/10/16 09:19:11;;;;;;;0.30;0.20;;;13.00;99.90;;;;;;5035059;28;20264;-63
2021/10/16 09:21:46;;;;;;;0.30;0.20;;;13.00;1.00;;;;;;5034970;28;20229;-62
2021/10/16 09:24:19;;;;;;;0.93;0.30;;;13.10;1.00;;;;;;5017703;28;20260;-61
2021/10/16 09:26:49;;;;;;;0.35;0.25;;;13.10;99.90;;;;;;5035131;28;20512;-61
2021/10/16 09:29:16;;;;;;;0.30;0.10;;;13.10;99.90;;;;;;5035039;28;20173;-61
2021/10/16 09:31:52;;;;;;;0.38;0.20;;;13.10;1.00;;;;;;5035024;28;20201;-61
2021/10/16 09:34:35;;;;;;;0.30;0.20;;;13.20;99.90;;;;;;5034842;28;20626;-66
2021/10/16 09:37:10;;;;;;;0.30;0.22;;;13.20;99.90;;;;;;5033890;28;20186;-66
2021/10/16 09:39:38;;;;;;;0.30;0.20;;;13.30;99.90;;;;;;5031769;28;20180;-66
2021/10/16 09:42:05;;;;;;;0.95;0.95;;;13.40;99.90;;;;;;5034641;28;20276;-65
2021/10/16 09:44:33;;;;;;;0.30;0.20;;;13.50;99.90;;;;;;5041724;28;20204;-65
2021/10/16 09:47:06;;;;;;;0.30;0.30;;;13.60;1.00;;;;;;5034463;28;20626;-62
2021/10/16 09:49:40;;;;;;;0.65;0.50;;;13.40;99.90;;;;;;5031937;28;20239;-63
2021/10/16 09:52:10;;;;;;;2.15;0.95;;;13.40;1.00;;;;;;5034089;28;20178;-66
2021/10/16 09:54:39;;;;;;;0.30;0.20;;;13.60;1.00;;;;;;5033960;28;20185;-66
2021/10/16 09:57:07;;;;;;;1.15;0.40;;;13.70;99.90;;;;;;5033817;28;20200;-66
2021/10/16 09:59:35;;;;;;;0.30;0.10;;;13.70;53.80;;;;;;5033242;28;20250;-66
2021/10/16 10:02:02;;;;;;;0.50;0.30;;;13.60;99.90;;;;;;5033924;28;20205;-66
2021/10/16 10:04:31;;;;;;;1.58;0.50;;;13.80;1.00;;;;;;5031253;28;20192;-63
2021/10/16 10:06:58;;;;;;;0.30;0.20;;;13.80;28.00;;;;;;5033596;28;20529;-63
2021/10/16 10:09:24;;;;;;;0.80;0.50;;;13.60;32.00;;;;;;5015781;28;20196;-63
2021/10/16 10:11:53;;;;;;;0.50;0.37;;;13.40;70.20;;;;;;5033333;28;20189;-63
2021/10/16 10:14:20;;;;;;;0.30;0.20;;;13.50;99.90;;;;;;5033883;28;20452;-63
2021/10/16 10:16:49;;;;;;;0.30;0.20;;;13.50;1.00;;;;;;5033561;28;20181;-62
2021/10/16 10:19:16;;;;;;;0.30;0.17;;;13.40;1.00;;;;;;5033408;28;20186;-62
2021/10/16 10:21:42;;;;;;;0.30;0.20;;;13.40;1.00;;;;;;5033343;28;20304;-62
2021/10/16 10:24:10;;;;;;;4.63;0.40;;;13.50;1.00;;;;;;5016106;28;20177;-62
2021/10/16 10:26:39;;;;;;;0.50;0.30;;;13.60;99.90;;;;;;5033529;28;20174;-62
2021/10/16 10:29:06;;;;;;;0.30;0.20;;;13.50;1.00;;;;;;5033180;28;20262;-67
2021/10/16 10:31:55;;;;;;;0.30;0.20;;;13.10;1.00;;;;;;5033439;28;20802;-66
2021/10/16 10:34:24;;;;;;;1.10;0.45;;;13.40;99.90;;;;;;5032756;28;20193;-66
2021/10/16 10:37:11;;;;;;;0.47;0.30;;;13.50;1.00;;;;;;5031048;28;20185;-67
2021/10/16 10:40:03;;;;;;;0.43;0.40;;;13.50;1.00;;;;;;5031172;28;20193;-66
2021/10/16 10:42:40;;;;;;;0.30;0.20;;;13.60;64.60;;;;;;5028427;28;20213;-66
2021/10/16 10:45:20;;;;;;;2.15;0.57;;;13.30;1.00;;;;;;5034033;28;20493;-66
2021/10/16 10:48:16;;;;;;;0.30;0.20;;;13.20;1.00;;;;;;5028386;28;20199;-67
2021/10/16 10:51:02;;;;;;;0.30;0.20;;;13.10;1.00;;;;;;5015873;28;20220;-66
2021/10/16 10:53:33;;;;;;;0.30;0.20;;;13.20;99.90;;;;;;5032946;28;20573;-63
2021/10/16 10:56:04;;;;;;;0.30;0.20;;;13.20;99.90;;;;;;5030865;28;20642;-63
2021/10/16 10:58:53;;;;;;;0.30;0.20;;;13.50;99.90;;;;;;5032960;28;20619;-63
2021/10/16 11:01:51;;;;;;;1.25;1.00;;;13.60;99.90;;;;;;5030657;28;20193;-63
2021/10/16 11:04:38;;;;;;;0.30;0.10;;;13.90;1.00;;;;;;5030767;28;20260;-68
2021/10/16 11:07:12;;;;;;;0.30;0.20;;;14.30;99.90;;;;;;5015424;28;20817;-67
2021/10/16 11:09:38;;;;;;;0.40;0.30;;;14.40;99.90;;;;;;5032863;28;20638;-66
2021/10/16 11:12:05;;;;;;;0.40;0.20;;;14.40;1.00;;;;;;5032924;28;20200;-67
2021/10/16 11:14:32;;;;;;;0.35;0.20;;;14.50;99.90;;;;;;5033570;28;20707;-67
2021/10/16 11:17:01;;;;;;;0.32;0.20;;;14.80;99.90;;;;;;5032989;28;20209;-62
2021/10/16 11:19:27;;;;;;;0.40;0.17;;;14.60;1.00;;;;;;5032808;28;20181;-67
2021/10/16 11:21:57;;;;;;;0.40;0.20;;;14.60;99.90;;;;;;5033155;28;20217;-67
2021/10/16 11:24:23;;;;;;;0.40;0.20;;;14.60;57.80;;;;;;5032389;28;20193;-67
2021/10/16 11:26:55;;;;;;;0.50;0.40;;;14.80;99.90;;;;;;5037000;28;20673;-67
2021/10/16 11:29:35;;;;;;;0.50;0.30;;;14.90;99.90;;;;;;5037095;28;20204;-67
2021/10/16 11:32:21;;;;;;;0.40;0.20;;;14.90;99.90;;;;;;5037186;28;20184;-67
2021/10/16 11:35:00;;;;;;;0.32;0.15;;;14.60;1.00;;;;;;5035212;28;20192;-64
2021/10/16 11:37:38;;;;;;;0.40;0.20;;;14.70;83.90;;;;;;5036481;28;20194;-64
2021/10/16 11:40:09;;;;;;;0.40;0.10;;;14.90;1.00;;;;;;5016668;28;20634;-63
2021/10/16 11:42:36;;;;;;;0.40;0.20;;;15.20;1.00;;;;;;5037748;28;20256;-67
2021/10/16 11:45:09;;;;;;;0.40;0.30;;;14.80;99.90;;;;;;5036720;28;20252;-61
2021/10/16 11:47:34;;;;;;;0.40;0.20;;;14.90;99.90;;;;;;5036768;28;20191;-65
2021/10/16 11:50:10;;;;;;;0.30;0.20;;;14.90;1.00;;;;;;5036288;28;20173;-65
2021/10/16 11:52:35;;;;;;;0.40;0.10;;;14.70;1.00;;;;;;5036631;28;20181;-65
2021/10/16 11:55:21;;;;;;;0.40;0.20;;;14.50;1.00;;;;;;5036436;28;20182;-65
2021/10/16 11:57:47;;;;;;;0.30;0.20;;;14.50;1.00;;;;;;5034293;28;20264;-65
2021/10/16 12:00:20;;;;;;;0.73;0.40;;;14.40;1.00;;;;;;5036334;28;20616;-65
2021/10/16 12:02:47;;;;;;;0.30;0.10;;;14.30;99.90;;;;;;5033763;28;20489;-66
2021/10/16 12:05:16;;;;;;;1.40;1.30;;;14.60;99.90;;;;;;5018868;28;20213;-66
2021/10/16 12:07:41;;;;;;;0.40;0.20;;;15.00;1.00;;;;;;5033780;28;20239;-67
2021/10/16 12:10:24;;;;;;;0.40;0.10;;;14.80;1.00;;;;;;5035828;28;20186;-66
2021/10/16 12:13:07;;;;;;;0.40;0.17;;;15.00;1.00;;;;;;5034640;28;20200;-64
2021/10/16 12:15:37;;;;;;;1.02;0.68;;;14.90;1.00;;;;;;5017701;28;20185;-64
2021/10/16 12:18:04;;;;;;;0.40;0.10;;;14.60;1.00;;;;;;5033543;28;20180;-65
2021/10/16 12:20:43;;;;;;;0.38;0.20;;;14.40;84.00;;;;;;5018519;28;20280;-64
2021/10/16 12:23:09;;;;;;;0.40;0.20;;;14.60;33.60;;;;;;5035806;28;20189;-64
2021/10/16 12:25:50;;;;;;;0.40;0.20;;;14.60;52.10;;;;;;5035879;28;20251;-64
2021/10/16 12:28:17;;;;;;;0.40;0.10;;;15.00;1.00;;;;;;5035962;28;20427;-64
2021/10/16 12:31:04;;;;;;;0.40;0.20;;;15.20;1.00;;;;;;5035753;28;20268;-63
2021/10/16 12:33:31;;;;;;;0.57;0.20;;;15.00;99.90;;;;;;5036036;28;20177;-62
2021/10/16 12:36:45;;;;;;;0.40;0.20;;;14.60;1.00;;;;;;5035095;28;20182;-62
2021/10/16 12:39:11;;;;;;;0.40;0.20;;;14.20;1.00;;;;;;5033240;28;20181;-66
2021/10/16 12:41:46;;;;;;;0.83;0.83;;;14.30;99.90;;;;;;5035338;28;20545;-62
2021/10/16 12:47:41;;;;;;;3.30;0.68;;;14.60;1.00;;;;;;5033723;28;20180;-62
2021/10/16 12:50:07;;;;;;;0.40;0.20;;;14.50;1.00;;;;;;5035304;28;20182;-67
2021/10/16 12:52:40;;;;;;;0.30;0.17;;;14.70;99.90;;;;;;5035435;28;20185;-67
2021/10/16 12:55:15;;;;;;;1.05;0.43;;;14.60;99.90;;;;;;5036001;28;20442;-63
2021/10/16 12:58:05;;;;;;;0.45;0.30;;;14.40;1.00;;;;;;5018706;28;20204;-63
2021/10/16 13:00:41;;;;;;;0.60;0.50;;;14.80;1.00;;;;;;5035187;28;20476;-64
2021/10/16 13:03:09;;;;;;;4.18;0.32;;;14.60;99.90;;;;;;5035753;28;20208;-63